sensor_id;sensor_type;location;lat;lon;timestamp;P1;durP1;ratioP1;P2;durP2;ratioP2
11620;SDS011;5866;49.094;11.900;2023-05-16T00:02:24;11.77;;;10.55;;
11620;SDS011;5866;49.094;11.900;2023-05-16T00:04:52;12.67;;;11.50;;
11620;SDS011;5866;49.094;11.900;2023-05-16T00:07:21;13.27;;;11.33;;
11620;SDS011;5866;49.094;11.900;2023-05-16T00:09:48;17.10;;;11.50;;
11620;SDS011;5866;49.094;11.900;2023-05-16T00:12:16;12.63;;;10.97;;
11620;SDS011;5866;49.094;11.900;2023-05-16T00:14:44;21.57;;;11.80;;
11620;SDS011;5866;49.094;11.900;2023-05-16T00:17:13;13.60;;;12.20;;
11620;SDS011;5866;49.094;11.900;2023-05-16T00:19:42;12.98;;;11.40;;
11620;SDS011;5866;49.094;11.900;2023-05-16T00:22:12;13.20;;;11.77;;
11620;SDS011;5866;49.094;11.900;2023-05-16T00:24:42;15.87;;;11.87;;
11620;SDS011;5866;49.094;11.900;2023-05-16T00:27:09;17.10;;;11.57;;
11620;SDS011;5866;49.094;11.900;2023-05-16T00:29:37;13.77;;;12.03;;
11620;SDS011;5866;49.094;11.900;2023-05-16T00:32:04;13.13;;;11.73;;
11620;SDS011;5866;49.094;11.900;2023-05-16T00:34:34;14.20;;;11.40;;
11620;SDS011;5866;49.094;11.900;2023-05-16T00:37:01;13.17;;;11.87;;
11620;SDS011;5866;49.094;11.900;2023-05-16T00:39:29;14.40;;;12.27;;
11620;SDS011;5866;49.094;11.900;2023-05-16T00:41:58;13.27;;;11.57;;
11620;SDS011;5866;49.094;11.900;2023-05-16T00:44:26;12.57;;;11.37;;
11620;SDS011;5866;49.094;11.900;2023-05-16T00:46:54;13.77;;;10.97;;
11620;SDS011;5866;49.094;11.900;2023-05-16T00:49:21;12.33;;;10.80;;
11620;SDS011;5866;49.094;11.900;2023-05-16T00:51:49;12.07;;;10.97;;
11620;SDS011;5866;49.094;11.900;2023-05-16T00:54:17;14.40;;;11.37;;
11620;SDS011;5866;49.094;11.900;2023-05-16T00:56:46;14.57;;;11.77;;
11620;SDS011;5866;49.094;11.900;2023-05-16T00:59:15;11.60;;;10.43;;
11620;SDS011;5866;49.094;11.900;2023-05-16T01:01:42;12.33;;;11.13;;
11620;SDS011;5866;49.094;11.900;2023-05-16T01:04:13;11.37;;;10.17;;
11620;SDS011;5866;49.094;11.900;2023-05-16T01:06:40;13.23;;;11.43;;
11620;SDS011;5866;49.094;11.900;2023-05-16T01:09:08;13.20;;;11.80;;
11620;SDS011;5866;49.094;11.900;2023-05-16T01:11:38;13.00;;;11.70;;
11620;SDS011;5866;49.094;11.900;2023-05-16T01:14:15;13.17;;;11.97;;
11620;SDS011;5866;49.094;11.900;2023-05-16T01:16:49;14.23;;;12.57;;
11620;SDS011;5866;49.094;11.900;2023-05-16T01:19:29;13.37;;;12.07;;
11620;SDS011;5866;49.094;11.900;2023-05-16T01:22:11;14.03;;;12.27;;
11620;SDS011;5866;49.094;11.900;2023-05-16T01:24:49;14.00;;;11.80;;
11620;SDS011;5866;49.094;11.900;2023-05-16T01:27:30;12.90;;;11.50;;
11620;SDS011;5866;49.094;11.900;2023-05-16T01:29:59;13.43;;;12.00;;
11620;SDS011;5866;49.094;11.900;2023-05-16T01:32:27;12.73;;;11.50;;
11620;SDS011;5866;49.094;11.900;2023-05-16T01:34:54;13.80;;;12.50;;
11620;SDS011;5866;49.094;11.900;2023-05-16T01:37:23;15.50;;;13.37;;
11620;SDS011;5866;49.094;11.900;2023-05-16T01:40:03;13.47;;;12.17;;
11620;SDS011;5866;49.094;11.900;2023-05-16T01:42:38;14.67;;;13.00;;
11620;SDS011;5866;49.094;11.900;2023-05-16T01:45:12;15.00;;;13.40;;
11620;SDS011;5866;49.094;11.900;2023-05-16T01:47:44;14.63;;;11.63;;
11620;SDS011;5866;49.094;11.900;2023-05-16T01:50:19;14.47;;;12.93;;
11620;SDS011;5866;49.094;11.900;2023-05-16T01:52:50;15.40;;;12.57;;
11620;SDS011;5866;49.094;11.900;2023-05-16T01:55:23;17.13;;;14.07;;
11620;SDS011;5866;49.094;11.900;2023-05-16T01:57:59;17.27;;;13.77;;
11620;SDS011;5866;49.094;11.900;2023-05-16T02:00:29;16.20;;;13.20;;
11620;SDS011;5866;49.094;11.900;2023-05-16T02:02:56;16.00;;;14.30;;
11620;SDS011;5866;49.094;11.900;2023-05-16T02:05:24;14.67;;;13.17;;
11620;SDS011;5866;49.094;11.900;2023-05-16T02:07:52;15.27;;;13.83;;
11620;SDS011;5866;49.094;11.900;2023-05-16T02:10:20;13.90;;;12.57;;
11620;SDS011;5866;49.094;11.900;2023-05-16T02:12:48;14.60;;;13.20;;
11620;SDS011;5866;49.094;11.900;2023-05-16T02:15:17;14.20;;;12.67;;
11620;SDS011;5866;49.094;11.900;2023-05-16T02:17:45;14.77;;;12.50;;
11620;SDS011;5866;49.094;11.900;2023-05-16T02:20:13;16.43;;;12.40;;
11620;SDS011;5866;49.094;11.900;2023-05-16T02:22:41;15.10;;;12.97;;
11620;SDS011;5866;49.094;11.900;2023-05-16T02:25:09;14.77;;;13.23;;
11620;SDS011;5866;49.094;11.900;2023-05-16T02:27:36;13.60;;;12.20;;
11620;SDS011;5866;49.094;11.900;2023-05-16T02:30:04;14.00;;;12.33;;
11620;SDS011;5866;49.094;11.900;2023-05-16T02:32:34;14.47;;;12.80;;
11620;SDS011;5866;49.094;11.900;2023-05-16T02:35:02;14.83;;;12.90;;
11620;SDS011;5866;49.094;11.900;2023-05-16T02:37:30;13.83;;;12.43;;
11620;SDS011;5866;49.094;11.900;2023-05-16T02:39:58;14.40;;;12.90;;
11620;SDS011;5866;49.094;11.900;2023-05-16T02:42:25;13.93;;;12.50;;
11620;SDS011;5866;49.094;11.900;2023-05-16T02:44:53;15.07;;;12.20;;
11620;SDS011;5866;49.094;11.900;2023-05-16T02:47:21;13.67;;;12.23;;
11620;SDS011;5866;49.094;11.900;2023-05-16T02:49:50;13.63;;;12.20;;
11620;SDS011;5866;49.094;11.900;2023-05-16T02:52:17;13.87;;;12.37;;
11620;SDS011;5866;49.094;11.900;2023-05-16T02:54:45;14.10;;;12.70;;
11620;SDS011;5866;49.094;11.900;2023-05-16T02:57:33;16.37;;;12.87;;
11620;SDS011;5866;49.094;11.900;2023-05-16T03:00:00;14.33;;;12.83;;
11620;SDS011;5866;49.094;11.900;2023-05-16T03:02:31;13.83;;;12.23;;
11620;SDS011;5866;49.094;11.900;2023-05-16T03:05:00;13.83;;;12.10;;
11620;SDS011;5866;49.094;11.900;2023-05-16T03:07:27;13.77;;;12.37;;
11620;SDS011;5866;49.094;11.900;2023-05-16T03:09:55;15.55;;;12.63;;
11620;SDS011;5866;49.094;11.900;2023-05-16T03:12:23;16.63;;;12.07;;
11620;SDS011;5866;49.094;11.900;2023-05-16T03:14:50;15.93;;;12.98;;
11620;SDS011;5866;49.094;11.900;2023-05-16T03:17:18;13.53;;;12.23;;
11620;SDS011;5866;49.094;11.900;2023-05-16T03:19:45;14.63;;;12.63;;
11620;SDS011;5866;49.094;11.900;2023-05-16T03:22:14;13.60;;;12.23;;
11620;SDS011;5866;49.094;11.900;2023-05-16T03:24:42;13.53;;;12.23;;
11620;SDS011;5866;49.094;11.900;2023-05-16T03:27:09;13.02;;;11.73;;
11620;SDS011;5866;49.094;11.900;2023-05-16T03:29:37;13.20;;;11.90;;
11620;SDS011;5866;49.094;11.900;2023-05-16T03:32:05;14.13;;;12.73;;
11620;SDS011;5866;49.094;11.900;2023-05-16T03:34:32;13.57;;;12.30;;
11620;SDS011;5866;49.094;11.900;2023-05-16T03:37:00;14.20;;;12.77;;
11620;SDS011;5866;49.094;11.900;2023-05-16T03:39:29;13.73;;;12.40;;
11620;SDS011;5866;49.094;11.900;2023-05-16T03:41:56;14.30;;;13.00;;
11620;SDS011;5866;49.094;11.900;2023-05-16T03:44:24;14.88;;;13.40;;
11620;SDS011;5866;49.094;11.900;2023-05-16T03:46:51;13.60;;;12.30;;
11620;SDS011;5866;49.094;11.900;2023-05-16T03:49:23;12.90;;;11.65;;
11620;SDS011;5866;49.094;11.900;2023-05-16T03:51:53;14.67;;;13.13;;
11620;SDS011;5866;49.094;11.900;2023-05-16T03:54:20;14.20;;;12.80;;
11620;SDS011;5866;49.094;11.900;2023-05-16T03:56:49;14.10;;;12.47;;
11620;SDS011;5866;49.094;11.900;2023-05-16T03:59:17;14.48;;;13.07;;
11620;SDS011;5866;49.094;11.900;2023-05-16T04:01:44;14.55;;;13.18;;
11620;SDS011;5866;49.094;11.900;2023-05-16T04:04:12;14.05;;;12.65;;
11620;SDS011;5866;49.094;11.900;2023-05-16T04:06:40;15.88;;;14.00;;
11620;SDS011;5866;49.094;11.900;2023-05-16T04:09:07;16.10;;;13.80;;
11620;SDS011;5866;49.094;11.900;2023-05-16T04:11:35;18.10;;;14.65;;
11620;SDS011;5866;49.094;11.900;2023-05-16T04:14:05;15.85;;;14.18;;
11620;SDS011;5866;49.094;11.900;2023-05-16T04:16:32;19.25;;;17.25;;
11620;SDS011;5866;49.094;11.900;2023-05-16T04:19:00;17.30;;;15.50;;
11620;SDS011;5866;49.094;11.900;2023-05-16T04:21:29;16.08;;;14.52;;
11620;SDS011;5866;49.094;11.900;2023-05-16T04:23:56;16.75;;;15.00;;
11620;SDS011;5866;49.094;11.900;2023-05-16T04:26:24;16.65;;;14.95;;
11620;SDS011;5866;49.094;11.900;2023-05-16T04:28:52;23.23;;;16.55;;
11620;SDS011;5866;49.094;11.900;2023-05-16T04:31:21;17.60;;;15.80;;
11620;SDS011;5866;49.094;11.900;2023-05-16T04:33:49;17.17;;;15.38;;
11620;SDS011;5866;49.094;11.900;2023-05-16T04:36:17;15.90;;;14.20;;
11620;SDS011;5866;49.094;11.900;2023-05-16T04:38:44;16.05;;;14.45;;
11620;SDS011;5866;49.094;11.900;2023-05-16T04:41:12;16.83;;;15.00;;
11620;SDS011;5866;49.094;11.900;2023-05-16T04:43:40;15.25;;;13.73;;
11620;SDS011;5866;49.094;11.900;2023-05-16T04:46:08;16.48;;;14.65;;
11620;SDS011;5866;49.094;11.900;2023-05-16T04:48:37;18.10;;;15.02;;
11620;SDS011;5866;49.094;11.900;2023-05-16T04:51:04;16.58;;;14.82;;
11620;SDS011;5866;49.094;11.900;2023-05-16T04:53:31;17.63;;;14.15;;
11620;SDS011;5866;49.094;11.900;2023-05-16T04:55:59;15.27;;;13.75;;
11620;SDS011;5866;49.094;11.900;2023-05-16T04:58:27;14.45;;;13.05;;
11620;SDS011;5866;49.094;11.900;2023-05-16T05:00:54;14.07;;;12.57;;
11620;SDS011;5866;49.094;11.900;2023-05-16T05:03:22;17.38;;;12.55;;
11620;SDS011;5866;49.094;11.900;2023-05-16T05:05:51;13.43;;;12.13;;
11620;SDS011;5866;49.094;11.900;2023-05-16T05:08:19;14.85;;;13.23;;
11620;SDS011;5866;49.094;11.900;2023-05-16T05:10:47;14.32;;;12.00;;
11620;SDS011;5866;49.094;11.900;2023-05-16T05:13:15;18.52;;;12.82;;
11620;SDS011;5866;49.094;11.900;2023-05-16T05:15:42;14.80;;;13.40;;
11620;SDS011;5866;49.094;11.900;2023-05-16T05:18:10;15.05;;;13.57;;
11620;SDS011;5866;49.094;11.900;2023-05-16T05:20:37;15.88;;;14.27;;
11620;SDS011;5866;49.094;11.900;2023-05-16T05:23:06;15.35;;;13.90;;
11620;SDS011;5866;49.094;11.900;2023-05-16T05:25:34;14.93;;;13.43;;
11620;SDS011;5866;49.094;11.900;2023-05-16T05:28:03;15.65;;;14.18;;
11620;SDS011;5866;49.094;11.900;2023-05-16T05:30:31;14.73;;;13.23;;
11620;SDS011;5866;49.094;11.900;2023-05-16T05:32:58;13.73;;;12.27;;
11620;SDS011;5866;49.094;11.900;2023-05-16T05:35:26;14.40;;;12.95;;
11620;SDS011;5866;49.094;11.900;2023-05-16T05:37:54;15.27;;;13.68;;
11620;SDS011;5866;49.094;11.900;2023-05-16T05:40:23;13.38;;;12.15;;
11620;SDS011;5866;49.094;11.900;2023-05-16T05:42:50;10.10;;;9.20;;
11620;SDS011;5866;49.094;11.900;2023-05-16T05:45:18;9.05;;;8.25;;
11620;SDS011;5866;49.094;11.900;2023-05-16T05:47:45;9.30;;;7.82;;
11620;SDS011;5866;49.094;11.900;2023-05-16T05:50:13;7.38;;;6.68;;
11620;SDS011;5866;49.094;11.900;2023-05-16T05:52:41;5.97;;;5.38;;
11620;SDS011;5866;49.094;11.900;2023-05-16T05:55:09;6.30;;;5.63;;
11620;SDS011;5866;49.094;11.900;2023-05-16T05:57:38;7.28;;;5.80;;
11620;SDS011;5866;49.094;11.900;2023-05-16T06:00:06;6.13;;;5.53;;
11620;SDS011;5866;49.094;11.900;2023-05-16T06:02:35;5.70;;;5.00;;
11620;SDS011;5866;49.094;11.900;2023-05-16T06:05:02;7.65;;;5.55;;
11620;SDS011;5866;49.094;11.900;2023-05-16T06:07:30;5.35;;;4.95;;
11620;SDS011;5866;49.094;11.900;2023-05-16T06:09:58;6.88;;;5.65;;
11620;SDS011;5866;49.094;11.900;2023-05-16T06:12:30;6.82;;;5.30;;
11620;SDS011;5866;49.094;11.900;2023-05-16T06:14:59;5.93;;;5.38;;
11620;SDS011;5866;49.094;11.900;2023-05-16T06:17:27;5.72;;;5.20;;
11620;SDS011;5866;49.094;11.900;2023-05-16T06:19:54;7.10;;;5.80;;
11620;SDS011;5866;49.094;11.900;2023-05-16T06:22:22;5.43;;;4.95;;
11620;SDS011;5866;49.094;11.900;2023-05-16T06:24:49;7.00;;;6.30;;
11620;SDS011;5866;49.094;11.900;2023-05-16T06:27:16;8.82;;;5.88;;
11620;SDS011;5866;49.094;11.900;2023-05-16T06:29:44;7.35;;;6.20;;
11620;SDS011;5866;49.094;11.900;2023-05-16T06:32:13;6.32;;;5.80;;
11620;SDS011;5866;49.094;11.900;2023-05-16T06:34:40;7.05;;;5.57;;
11620;SDS011;5866;49.094;11.900;2023-05-16T06:37:08;7.47;;;5.18;;
11620;SDS011;5866;49.094;11.900;2023-05-16T06:39:35;6.53;;;5.63;;
11620;SDS011;5866;49.094;11.900;2023-05-16T06:42:03;6.80;;;5.88;;
11620;SDS011;5866;49.094;11.900;2023-05-16T06:44:31;6.70;;;6.10;;
11620;SDS011;5866;49.094;11.900;2023-05-16T06:46:58;8.90;;;5.97;;
11620;SDS011;5866;49.094;11.900;2023-05-16T06:49:27;7.18;;;6.53;;
11620;SDS011;5866;49.094;11.900;2023-05-16T06:51:54;7.90;;;6.65;;
11620;SDS011;5866;49.094;11.900;2023-05-16T06:54:22;9.70;;;6.57;;
11620;SDS011;5866;49.094;11.900;2023-05-16T06:56:50;6.35;;;5.80;;
11620;SDS011;5866;49.094;11.900;2023-05-16T06:59:17;8.63;;;6.22;;
11620;SDS011;5866;49.094;11.900;2023-05-16T07:01:45;6.88;;;6.28;;
11620;SDS011;5866;49.094;11.900;2023-05-16T07:04:12;6.63;;;6.03;;
11620;SDS011;5866;49.094;11.900;2023-05-16T07:06:42;6.60;;;5.90;;
11620;SDS011;5866;49.094;11.900;2023-05-16T07:09:09;7.13;;;6.43;;
11620;SDS011;5866;49.094;11.900;2023-05-16T07:11:37;6.63;;;6.03;;
11620;SDS011;5866;49.094;11.900;2023-05-16T07:14:04;4.88;;;4.35;;
11620;SDS011;5866;49.094;11.900;2023-05-16T07:16:32;8.32;;;6.90;;
11620;SDS011;5866;49.094;11.900;2023-05-16T07:19:00;7.80;;;6.50;;
11620;SDS011;5866;49.094;11.900;2023-05-16T07:21:27;8.43;;;6.05;;
11620;SDS011;5866;49.094;11.900;2023-05-16T07:23:56;7.55;;;6.90;;
11620;SDS011;5866;49.094;11.900;2023-05-16T07:26:24;7.60;;;6.90;;
11620;SDS011;5866;49.094;11.900;2023-05-16T07:28:51;7.90;;;7.10;;
11620;SDS011;5866;49.094;11.900;2023-05-16T07:31:19;7.35;;;6.03;;
11620;SDS011;5866;49.094;11.900;2023-05-16T07:33:47;7.50;;;6.80;;
11620;SDS011;5866;49.094;11.900;2023-05-16T07:36:17;7.32;;;6.60;;
11620;SDS011;5866;49.094;11.900;2023-05-16T07:38:45;7.78;;;6.97;;
11620;SDS011;5866;49.094;11.900;2023-05-16T07:41:14;7.35;;;6.65;;
11620;SDS011;5866;49.094;11.900;2023-05-16T07:43:41;8.73;;;7.00;;
11620;SDS011;5866;49.094;11.900;2023-05-16T07:46:09;7.68;;;6.97;;
11620;SDS011;5866;49.094;11.900;2023-05-16T07:48:37;7.70;;;7.00;;
11620;SDS011;5866;49.094;11.900;2023-05-16T07:51:05;7.47;;;6.80;;
11620;SDS011;5866;49.094;11.900;2023-05-16T07:53:32;7.55;;;6.85;;
11620;SDS011;5866;49.094;11.900;2023-05-16T07:56:00;10.90;;;6.75;;
11620;SDS011;5866;49.094;11.900;2023-05-16T07:58:29;7.75;;;7.00;;
11620;SDS011;5866;49.094;11.900;2023-05-16T08:00:56;9.27;;;7.00;;
11620;SDS011;5866;49.094;11.900;2023-05-16T08:03:24;8.25;;;6.43;;
11620;SDS011;5866;49.094;11.900;2023-05-16T08:05:52;7.80;;;7.10;;
11620;SDS011;5866;49.094;11.900;2023-05-16T08:08:20;7.97;;;6.78;;
11620;SDS011;5866;49.094;11.900;2023-05-16T08:10:47;8.13;;;7.32;;
11620;SDS011;5866;49.094;11.900;2023-05-16T08:13:15;7.82;;;7.10;;
11620;SDS011;5866;49.094;11.900;2023-05-16T08:15:43;8.75;;;7.30;;
11620;SDS011;5866;49.094;11.900;2023-05-16T08:18:12;6.88;;;6.28;;
11620;SDS011;5866;49.094;11.900;2023-05-16T08:20:41;7.72;;;7.03;;
11620;SDS011;5866;49.094;11.900;2023-05-16T08:23:09;10.90;;;6.78;;
11620;SDS011;5866;49.094;11.900;2023-05-16T08:25:37;8.18;;;7.38;;
11620;SDS011;5866;49.094;11.900;2023-05-16T08:28:04;10.93;;;6.82;;
11620;SDS011;5866;49.094;11.900;2023-05-16T08:30:32;8.35;;;6.80;;
11620;SDS011;5866;49.094;11.900;2023-05-16T08:33:01;8.68;;;7.38;;
11620;SDS011;5866;49.094;11.900;2023-05-16T08:35:30;7.15;;;6.15;;
11620;SDS011;5866;49.094;11.900;2023-05-16T08:37:58;6.38;;;5.55;;
11620;SDS011;5866;49.094;11.900;2023-05-16T08:40:25;10.50;;;6.57;;
11620;SDS011;5866;49.094;11.900;2023-05-16T08:42:54;7.13;;;6.43;;
11620;SDS011;5866;49.094;11.900;2023-05-16T08:45:22;7.05;;;6.43;;
11620;SDS011;5866;49.094;11.900;2023-05-16T08:47:50;7.25;;;6.28;;
11620;SDS011;5866;49.094;11.900;2023-05-16T08:50:22;8.38;;;7.10;;
11620;SDS011;5866;49.094;11.900;2023-05-16T08:52:51;6.50;;;5.90;;
11620;SDS011;5866;49.094;11.900;2023-05-16T08:55:19;6.72;;;6.13;;
11620;SDS011;5866;49.094;11.900;2023-05-16T08:57:48;7.65;;;6.00;;
11620;SDS011;5866;49.094;11.900;2023-05-16T09:00:17;7.38;;;6.05;;
11620;SDS011;5866;49.094;11.900;2023-05-16T09:02:45;6.07;;;5.47;;
11620;SDS011;5866;49.094;11.900;2023-05-16T09:05:14;6.45;;;5.80;;
11620;SDS011;5866;49.094;11.900;2023-05-16T09:07:43;7.75;;;6.15;;
11620;SDS011;5866;49.094;11.900;2023-05-16T09:10:12;6.25;;;5.65;;
11620;SDS011;5866;49.094;11.900;2023-05-16T09:12:39;5.93;;;5.43;;
11620;SDS011;5866;49.094;11.900;2023-05-16T09:15:08;5.70;;;5.20;;
11620;SDS011;5866;49.094;11.900;2023-05-16T09:17:37;6.63;;;6.03;;
11620;SDS011;5866;49.094;11.900;2023-05-16T09:20:09;8.60;;;5.93;;
11620;SDS011;5866;49.094;11.900;2023-05-16T09:22:39;6.13;;;5.53;;
11620;SDS011;5866;49.094;11.900;2023-05-16T09:25:17;5.72;;;5.20;;
11620;SDS011;5866;49.094;11.900;2023-05-16T09:27:57;7.20;;;6.30;;
11620;SDS011;5866;49.094;11.900;2023-05-16T09:30:26;6.65;;;6.10;;
11620;SDS011;5866;49.094;11.900;2023-05-16T09:32:55;8.82;;;6.72;;
11620;SDS011;5866;49.094;11.900;2023-05-16T09:35:24;7.32;;;6.00;;
11620;SDS011;5866;49.094;11.900;2023-05-16T09:38:12;6.60;;;5.80;;
11620;SDS011;5866;49.094;11.900;2023-05-16T09:40:42;6.68;;;5.97;;
11620;SDS011;5866;49.094;11.900;2023-05-16T09:43:11;6.20;;;5.70;;
11620;SDS011;5866;49.094;11.900;2023-05-16T09:45:44;6.88;;;6.25;;
11620;SDS011;5866;49.094;11.900;2023-05-16T09:48:12;6.95;;;6.10;;
11620;SDS011;5866;49.094;11.900;2023-05-16T09:50:45;6.63;;;5.82;;
11620;SDS011;5866;49.094;11.900;2023-05-16T09:53:14;5.93;;;5.32;;
11620;SDS011;5866;49.094;11.900;2023-05-16T09:55:43;5.57;;;5.00;;
11620;SDS011;5866;49.094;11.900;2023-05-16T09:58:11;6.38;;;5.60;;
11620;SDS011;5866;49.094;11.900;2023-05-16T10:00:43;6.32;;;5.70;;
11620;SDS011;5866;49.094;11.900;2023-05-16T10:03:12;5.90;;;5.30;;
11620;SDS011;5866;49.094;11.900;2023-05-16T10:05:41;7.95;;;5.40;;
11620;SDS011;5866;49.094;11.900;2023-05-16T10:08:09;5.70;;;4.85;;
11620;SDS011;5866;49.094;11.900;2023-05-16T10:10:37;6.82;;;6.22;;
11620;SDS011;5866;49.094;11.900;2023-05-16T10:13:07;5.97;;;5.47;;
11620;SDS011;5866;49.094;11.900;2023-05-16T10:15:36;6.78;;;4.95;;
11620;SDS011;5866;49.094;11.900;2023-05-16T10:18:04;6.35;;;5.75;;
11620;SDS011;5866;49.094;11.900;2023-05-16T10:20:38;8.60;;;5.63;;
11620;SDS011;5866;49.094;11.900;2023-05-16T10:23:08;5.53;;;5.00;;
11620;SDS011;5866;49.094;11.900;2023-05-16T10:25:39;5.88;;;5.07;;
11620;SDS011;5866;49.094;11.900;2023-05-16T10:28:10;5.35;;;4.82;;
11620;SDS011;5866;49.094;11.900;2023-05-16T10:30:39;6.95;;;5.47;;
11620;SDS011;5866;49.094;11.900;2023-05-16T10:33:09;6.45;;;5.60;;
11620;SDS011;5866;49.094;11.900;2023-05-16T10:35:39;6.65;;;5.93;;
11620;SDS011;5866;49.094;11.900;2023-05-16T10:38:07;6.07;;;5.55;;
11620;SDS011;5866;49.094;11.900;2023-05-16T10:40:37;6.18;;;5.68;;
11620;SDS011;5866;49.094;11.900;2023-05-16T10:43:06;6.00;;;5.43;;
11620;SDS011;5866;49.094;11.900;2023-05-16T10:45:39;5.88;;;5.28;;
11620;SDS011;5866;49.094;11.900;2023-05-16T10:48:09;5.60;;;4.97;;
11620;SDS011;5866;49.094;11.900;2023-05-16T10:50:39;6.00;;;5.40;;
11620;SDS011;5866;49.094;11.900;2023-05-16T10:53:15;7.45;;;6.07;;
11620;SDS011;5866;49.094;11.900;2023-05-16T10:56:04;7.07;;;6.18;;
11620;SDS011;5866;49.094;11.900;2023-05-16T10:58:42;6.85;;;5.80;;
11620;SDS011;5866;49.094;11.900;2023-05-16T11:01:15;5.20;;;4.80;;
11620;SDS011;5866;49.094;11.900;2023-05-16T11:04:03;6.88;;;6.18;;
11620;SDS011;5866;49.094;11.900;2023-05-16T11:06:48;6.18;;;5.55;;
11620;SDS011;5866;49.094;11.900;2023-05-16T11:09:17;6.88;;;5.93;;
11620;SDS011;5866;49.094;11.900;2023-05-16T11:11:52;5.78;;;5.20;;
11620;SDS011;5866;49.094;11.900;2023-05-16T11:14:22;6.20;;;5.60;;
11620;SDS011;5866;49.094;11.900;2023-05-16T11:16:55;6.13;;;5.22;;
11620;SDS011;5866;49.094;11.900;2023-05-16T11:19:32;5.78;;;5.18;;
11620;SDS011;5866;49.094;11.900;2023-05-16T11:22:05;6.75;;;5.20;;
11620;SDS011;5866;49.094;11.900;2023-05-16T11:24:44;5.80;;;5.30;;
11620;SDS011;5866;49.094;11.900;2023-05-16T11:27:19;6.05;;;5.45;;
11620;SDS011;5866;49.094;11.900;2023-05-16T11:29:49;11.77;;;5.45;;
11620;SDS011;5866;49.094;11.900;2023-05-16T11:32:22;6.93;;;5.18;;
11620;SDS011;5866;49.094;11.900;2023-05-16T11:34:50;5.45;;;4.95;;
11620;SDS011;5866;49.094;11.900;2023-05-16T11:37:19;5.93;;;4.65;;
11620;SDS011;5866;49.094;11.900;2023-05-16T11:39:48;5.95;;;5.28;;
11620;SDS011;5866;49.094;11.900;2023-05-16T11:42:18;8.63;;;5.85;;
11620;SDS011;5866;49.094;11.900;2023-05-16T11:44:45;6.07;;;5.20;;
11620;SDS011;5866;49.094;11.900;2023-05-16T11:47:13;5.45;;;4.95;;
11620;SDS011;5866;49.094;11.900;2023-05-16T11:49:42;7.45;;;5.20;;
11620;SDS011;5866;49.094;11.900;2023-05-16T11:52:09;5.40;;;4.88;;
11620;SDS011;5866;49.094;11.900;2023-05-16T11:54:37;5.80;;;4.97;;
11620;SDS011;5866;49.094;11.900;2023-05-16T11:57:07;5.15;;;4.70;;
11620;SDS011;5866;49.094;11.900;2023-05-16T11:59:35;5.35;;;4.85;;
11620;SDS011;5866;49.094;11.900;2023-05-16T12:02:03;7.35;;;5.20;;
11620;SDS011;5866;49.094;11.900;2023-05-16T12:04:32;4.70;;;4.32;;
11620;SDS011;5866;49.094;11.900;2023-05-16T12:07:01;5.55;;;5.00;;
11620;SDS011;5866;49.094;11.900;2023-05-16T12:09:29;6.22;;;4.97;;
11620;SDS011;5866;49.094;11.900;2023-05-16T12:11:56;5.18;;;4.72;;
11620;SDS011;5866;49.094;11.900;2023-05-16T12:14:24;6.07;;;5.13;;
11620;SDS011;5866;49.094;11.900;2023-05-16T12:16:52;4.80;;;4.32;;
11620;SDS011;5866;49.094;11.900;2023-05-16T12:19:20;5.10;;;4.70;;
11620;SDS011;5866;49.094;11.900;2023-05-16T12:21:51;9.65;;;6.10;;
11620;SDS011;5866;49.094;11.900;2023-05-16T12:24:20;7.32;;;6.20;;
11620;SDS011;5866;49.094;11.900;2023-05-16T12:26:48;6.22;;;5.72;;
11620;SDS011;5866;49.094;11.900;2023-05-16T12:29:15;6.20;;;5.60;;
11620;SDS011;5866;49.094;11.900;2023-05-16T12:31:43;6.78;;;6.10;;
11620;SDS011;5866;49.094;11.900;2023-05-16T12:34:14;7.88;;;6.95;;
11620;SDS011;5866;49.094;11.900;2023-05-16T12:36:43;10.98;;;8.07;;
11620;SDS011;5866;49.094;11.900;2023-05-16T12:39:11;9.25;;;7.80;;
11620;SDS011;5866;49.094;11.900;2023-05-16T12:41:41;9.00;;;8.15;;
11620;SDS011;5866;49.094;11.900;2023-05-16T12:44:10;9.90;;;8.20;;
11620;SDS011;5866;49.094;11.900;2023-05-16T12:46:40;10.95;;;8.57;;
11620;SDS011;5866;49.094;11.900;2023-05-16T12:49:08;13.70;;;9.55;;
11620;SDS011;5866;49.094;11.900;2023-05-16T12:51:36;10.23;;;9.27;;
11620;SDS011;5866;49.094;11.900;2023-05-16T12:54:07;11.05;;;9.43;;
11620;SDS011;5866;49.094;11.900;2023-05-16T12:56:37;11.35;;;10.18;;
11620;SDS011;5866;49.094;11.900;2023-05-16T12:59:06;12.45;;;10.80;;
11620;SDS011;5866;49.094;11.900;2023-05-16T13:01:34;12.65;;;10.90;;
11620;SDS011;5866;49.094;11.900;2023-05-16T13:04:02;12.18;;;10.82;;
11620;SDS011;5866;49.094;11.900;2023-05-16T13:06:31;13.25;;;11.85;;
11620;SDS011;5866;49.094;11.900;2023-05-16T13:09:18;12.32;;;11.13;;
11620;SDS011;5866;49.094;11.900;2023-05-16T13:11:46;13.68;;;11.02;;
11620;SDS011;5866;49.094;11.900;2023-05-16T13:14:15;10.57;;;9.60;;
11620;SDS011;5866;49.094;11.900;2023-05-16T13:16:43;9.82;;;8.85;;
11620;SDS011;5866;49.094;11.900;2023-05-16T13:19:11;10.95;;;8.63;;
11620;SDS011;5866;49.094;11.900;2023-05-16T13:21:38;8.90;;;8.00;;
11620;SDS011;5866;49.094;11.900;2023-05-16T13:24:06;9.98;;;8.95;;
11620;SDS011;5866;49.094;11.900;2023-05-16T13:26:33;8.52;;;7.63;;
11620;SDS011;5866;49.094;11.900;2023-05-16T13:29:01;8.98;;;8.18;;
11620;SDS011;5866;49.094;11.900;2023-05-16T13:31:30;8.82;;;8.02;;
11620;SDS011;5866;49.094;11.900;2023-05-16T13:33:57;8.75;;;7.95;;
11620;SDS011;5866;49.094;11.900;2023-05-16T13:36:25;13.15;;;8.23;;
11620;SDS011;5866;49.094;11.900;2023-05-16T13:38:58;8.45;;;7.57;;
11620;SDS011;5866;49.094;11.900;2023-05-16T13:41:27;8.85;;;8.05;;
11620;SDS011;5866;49.094;11.900;2023-05-16T13:43:55;8.50;;;7.70;;
11620;SDS011;5866;49.094;11.900;2023-05-16T13:46:22;7.35;;;6.57;;
11620;SDS011;5866;49.094;11.900;2023-05-16T13:48:52;11.63;;;7.25;;
11620;SDS011;5866;49.094;11.900;2023-05-16T13:51:19;8.20;;;7.45;;
11620;SDS011;5866;49.094;11.900;2023-05-16T13:53:47;6.70;;;5.82;;
11620;SDS011;5866;49.094;11.900;2023-05-16T13:56:14;7.57;;;6.78;;
11620;SDS011;5866;49.094;11.900;2023-05-16T13:58:42;6.18;;;5.32;;
11620;SDS011;5866;49.094;11.900;2023-05-16T14:01:25;6.93;;;6.22;;
11620;SDS011;5866;49.094;11.900;2023-05-16T14:03:54;8.18;;;5.43;;
11620;SDS011;5866;49.094;11.900;2023-05-16T14:06:22;7.05;;;5.55;;
11620;SDS011;5866;49.094;11.900;2023-05-16T14:08:50;6.20;;;5.10;;
11620;SDS011;5866;49.094;11.900;2023-05-16T14:11:17;6.47;;;4.43;;
11620;SDS011;5866;49.094;11.900;2023-05-16T14:13:48;6.55;;;5.50;;
11620;SDS011;5866;49.094;11.900;2023-05-16T14:16:15;7.90;;;5.70;;
11620;SDS011;5866;49.094;11.900;2023-05-16T14:18:43;5.90;;;5.22;;
11620;SDS011;5866;49.094;11.900;2023-05-16T14:21:12;5.85;;;5.05;;
11620;SDS011;5866;49.094;11.900;2023-05-16T14:23:39;5.80;;;5.30;;
11620;SDS011;5866;49.094;11.900;2023-05-16T14:26:07;5.90;;;5.30;;
11620;SDS011;5866;49.094;11.900;2023-05-16T14:28:34;5.82;;;5.32;;
11620;SDS011;5866;49.094;11.900;2023-05-16T14:31:02;5.35;;;4.82;;
11620;SDS011;5866;49.094;11.900;2023-05-16T14:33:30;6.35;;;5.05;;
11620;SDS011;5866;49.094;11.900;2023-05-16T14:35:58;6.18;;;4.82;;
11620;SDS011;5866;49.094;11.900;2023-05-16T14:38:27;8.20;;;5.68;;
11620;SDS011;5866;49.094;11.900;2023-05-16T14:40:54;5.00;;;4.50;;
11620;SDS011;5866;49.094;11.900;2023-05-16T14:43:22;6.25;;;5.22;;
11620;SDS011;5866;49.094;11.900;2023-05-16T14:45:49;7.75;;;6.25;;
11620;SDS011;5866;49.094;11.900;2023-05-16T14:48:17;8.07;;;7.00;;